KSAA/SAA METAR and TAF weather

Enter ICAO airport designator
Station Type Date Time Source
KSAA METAR 2020/12/06 00:55 UTC NOAA

KSAA 060055Z AUTO 00000KT 10SM CLR M05/M10 A3041 RMK AO2


Station Type Date Time Source
KSAA Decoded METAR 2020/12/06 00:55 UTC NOAA

Station name not available
Dec 05, 2020 - 07:55 PM EST / 2020.12.06 0055 UTC
Wind: Calm:0
Visibility: 10 mile(s):0
Sky conditions: clear
Temperature: 23 F (-5 C)
Dew Point: 14 F (-10 C)
Relative Humidity: 67%
Pressure (altimeter): 30.41 in. Hg (1029 hPa)
ob: KSAA 060055Z AUTO 00000KT 10SM CLR M05/M10 A3041 RMK AO2
cycle: 1

Station Type Date Time Source
KSAA TAF UTC NOAA

Error!

Example: see airport list